sensor_id;sensor_type;location;lat;lon;timestamp;P1;P2;P0
64631;PMS5003;58358;50.936;0.246;2023-05-07T00:01:53;22;21;
64631;PMS5003;58358;50.936;0.246;2023-05-07T00:04:18;21;20;
64631;PMS5003;58358;50.936;0.246;2023-05-07T00:06:43;24;24;
64631;PMS5003;58358;50.936;0.246;2023-05-07T00:09:09;25;23;
64631;PMS5003;58358;50.936;0.246;2023-05-07T00:11:35;24;20;
64631;PMS5003;58358;50.936;0.246;2023-05-07T00:14:00;26;25;
64631;PMS5003;58358;50.936;0.246;2023-05-07T00:16:26;24;22;
64631;PMS5003;58358;50.936;0.246;2023-05-07T00:18:50;26;26;
64631;PMS5003;58358;50.936;0.246;2023-05-07T00:21:16;24;24;
64631;PMS5003;58358;50.936;0.246;2023-05-07T00:23:41;26;25;
64631;PMS5003;58358;50.936;0.246;2023-05-07T00:26:06;27;22;
64631;PMS5003;58358;50.936;0.246;2023-05-07T00:28:31;22;20;
64631;PMS5003;58358;50.936;0.246;2023-05-07T00:30:57;27;26;
64631;PMS5003;58358;50.936;0.246;2023-05-07T00:33:23;25;24;
64631;PMS5003;58358;50.936;0.246;2023-05-07T00:35:48;23;21;
64631;PMS5003;58358;50.936;0.246;2023-05-07T00:38:14;26;25;
64631;PMS5003;58358;50.936;0.246;2023-05-07T00:40:39;26;21;
64631;PMS5003;58358;50.936;0.246;2023-05-07T00:43:04;30;26;
64631;PMS5003;58358;50.936;0.246;2023-05-07T00:45:30;25;25;
64631;PMS5003;58358;50.936;0.246;2023-05-07T00:47:56;23;23;
64631;PMS5003;58358;50.936;0.246;2023-05-07T00:50:20;24;24;
64631;PMS5003;58358;50.936;0.246;2023-05-07T00:52:45;24;22;
64631;PMS5003;58358;50.936;0.246;2023-05-07T00:55:11;25;24;
64631;PMS5003;58358;50.936;0.246;2023-05-07T00:57:37;26;25;
64631;PMS5003;58358;50.936;0.246;2023-05-07T01:00:02;31;28;
64631;PMS5003;58358;50.936;0.246;2023-05-07T01:02:27;36;32;
64631;PMS5003;58358;50.936;0.246;2023-05-07T01:04:52;26;26;
64631;PMS5003;58358;50.936;0.246;2023-05-07T01:07:17;26;26;
64631;PMS5003;58358;50.936;0.246;2023-05-07T01:09:43;23;23;
64631;PMS5003;58358;50.936;0.246;2023-05-07T01:12:08;28;27;
64631;PMS5003;58358;50.936;0.246;2023-05-07T01:14:34;29;28;
64631;PMS5003;58358;50.936;0.246;2023-05-07T01:16:59;34;31;
64631;PMS5003;58358;50.936;0.246;2023-05-07T01:19:24;33;32;
64631;PMS5003;58358;50.936;0.246;2023-05-07T01:21:50;33;31;
64631;PMS5003;58358;50.936;0.246;2023-05-07T01:24:15;33;32;
64631;PMS5003;58358;50.936;0.246;2023-05-07T01:26:41;28;28;
64631;PMS5003;58358;50.936;0.246;2023-05-07T01:29:06;36;34;
64631;PMS5003;58358;50.936;0.246;2023-05-07T01:31:31;32;30;
64631;PMS5003;58358;50.936;0.246;2023-05-07T01:33:57;35;31;
64631;PMS5003;58358;50.936;0.246;2023-05-07T01:36:22;35;31;
64631;PMS5003;58358;50.936;0.246;2023-05-07T01:38:48;30;29;
64631;PMS5003;58358;50.936;0.246;2023-05-07T01:41:14;33;31;
64631;PMS5003;58358;50.936;0.246;2023-05-07T01:43:40;31;27;
64631;PMS5003;58358;50.936;0.246;2023-05-07T01:46:04;34;30;
64631;PMS5003;58358;50.936;0.246;2023-05-07T01:48:30;31;30;
64631;PMS5003;58358;50.936;0.246;2023-05-07T01:50:56;31;30;
64631;PMS5003;58358;50.936;0.246;2023-05-07T01:53:21;41;37;
64631;PMS5003;58358;50.936;0.246;2023-05-07T01:55:46;40;38;
64631;PMS5003;58358;50.936;0.246;2023-05-07T01:58:12;39;36;
64631;PMS5003;58358;50.936;0.246;2023-05-07T02:00:39;29;29;
64631;PMS5003;58358;50.936;0.246;2023-05-07T02:03:04;33;33;
64631;PMS5003;58358;50.936;0.246;2023-05-07T02:05:29;39;31;
64631;PMS5003;58358;50.936;0.246;2023-05-07T02:07:55;32;28;
64631;PMS5003;58358;50.936;0.246;2023-05-07T02:10:20;31;31;
64631;PMS5003;58358;50.936;0.246;2023-05-07T02:12:46;33;31;
64631;PMS5003;58358;50.936;0.246;2023-05-07T02:15:11;38;37;
64631;PMS5003;58358;50.936;0.246;2023-05-07T02:17:38;33;30;
64631;PMS5003;58358;50.936;0.246;2023-05-07T02:20:02;34;33;
64631;PMS5003;58358;50.936;0.246;2023-05-07T02:22:27;38;35;
64631;PMS5003;58358;50.936;0.246;2023-05-07T02:24:53;39;34;
64631;PMS5003;58358;50.936;0.246;2023-05-07T02:27:18;37;31;
64631;PMS5003;58358;50.936;0.246;2023-05-07T02:29:43;35;34;
64631;PMS5003;58358;50.936;0.246;2023-05-07T02:32:08;30;29;
64631;PMS5003;58358;50.936;0.246;2023-05-07T02:34:34;34;31;
64631;PMS5003;58358;50.936;0.246;2023-05-07T02:36:59;31;27;
64631;PMS5003;58358;50.936;0.246;2023-05-07T02:39:24;43;41;
64631;PMS5003;58358;50.936;0.246;2023-05-07T02:41:50;37;33;
64631;PMS5003;58358;50.936;0.246;2023-05-07T02:44:15;32;29;
64631;PMS5003;58358;50.936;0.246;2023-05-07T02:46:41;42;36;
64631;PMS5003;58358;50.936;0.246;2023-05-07T02:49:06;40;37;
64631;PMS5003;58358;50.936;0.246;2023-05-07T02:51:32;30;29;
64631;PMS5003;58358;50.936;0.246;2023-05-07T02:53:58;36;33;
64631;PMS5003;58358;50.936;0.246;2023-05-07T02:56:25;34;30;
64631;PMS5003;58358;50.936;0.246;2023-05-07T02:58:48;32;31;
64631;PMS5003;58358;50.936;0.246;2023-05-07T03:01:14;36;33;
64631;PMS5003;58358;50.936;0.246;2023-05-07T03:03:39;35;33;
64631;PMS5003;58358;50.936;0.246;2023-05-07T03:06:05;29;27;
64631;PMS5003;58358;50.936;0.246;2023-05-07T03:08:30;26;24;
64631;PMS5003;58358;50.936;0.246;2023-05-07T03:10:56;28;25;
64631;PMS5003;58358;50.936;0.246;2023-05-07T03:13:21;27;26;
64631;PMS5003;58358;50.936;0.246;2023-05-07T03:15:46;31;28;
64631;PMS5003;58358;50.936;0.246;2023-05-07T03:18:12;24;20;
64631;PMS5003;58358;50.936;0.246;2023-05-07T03:20:38;28;28;
64631;PMS5003;58358;50.936;0.246;2023-05-07T03:23:03;26;22;
64631;PMS5003;58358;50.936;0.246;2023-05-07T03:25:28;22;21;
64631;PMS5003;58358;50.936;0.246;2023-05-07T03:27:54;21;21;
64631;PMS5003;58358;50.936;0.246;2023-05-07T03:30:19;22;22;
64631;PMS5003;58358;50.936;0.246;2023-05-07T03:32:44;22;19;
64631;PMS5003;58358;50.936;0.246;2023-05-07T03:35:10;24;22;
64631;PMS5003;58358;50.936;0.246;2023-05-07T03:37:35;22;20;
64631;PMS5003;58358;50.936;0.246;2023-05-07T03:40:01;22;21;
64631;PMS5003;58358;50.936;0.246;2023-05-07T03:42:26;22;19;
64631;PMS5003;58358;50.936;0.246;2023-05-07T03:44:52;24;22;
64631;PMS5003;58358;50.936;0.246;2023-05-07T03:47:17;23;20;
64631;PMS5003;58358;50.936;0.246;2023-05-07T03:49:42;22;21;
64631;PMS5003;58358;50.936;0.246;2023-05-07T03:52:07;24;24;
64631;PMS5003;58358;50.936;0.246;2023-05-07T03:54:32;23;21;
64631;PMS5003;58358;50.936;0.246;2023-05-07T03:56:58;23;21;
64631;PMS5003;58358;50.936;0.246;2023-05-07T03:59:24;27;25;
64631;PMS5003;58358;50.936;0.246;2023-05-07T04:01:49;24;22;
64631;PMS5003;58358;50.936;0.246;2023-05-07T04:04:15;20;19;
64631;PMS5003;58358;50.936;0.246;2023-05-07T04:06:40;20;15;
64631;PMS5003;58358;50.936;0.246;2023-05-07T04:09:05;20;15;
64631;PMS5003;58358;50.936;0.246;2023-05-07T04:11:30;16;16;
64631;PMS5003;58358;50.936;0.246;2023-05-07T04:13:56;20;17;
64631;PMS5003;58358;50.936;0.246;2023-05-07T04:16:21;21;19;
64631;PMS5003;58358;50.936;0.246;2023-05-07T04:18:47;22;20;
64631;PMS5003;58358;50.936;0.246;2023-05-07T04:21:14;20;20;
64631;PMS5003;58358;50.936;0.246;2023-05-07T04:23:38;20;20;
64631;PMS5003;58358;50.936;0.246;2023-05-07T04:26:03;17;16;
64631;PMS5003;58358;50.936;0.246;2023-05-07T04:28:29;21;18;
64631;PMS5003;58358;50.936;0.246;2023-05-07T04:30:54;21;20;
64631;PMS5003;58358;50.936;0.246;2023-05-07T04:33:20;17;17;
64631;PMS5003;58358;50.936;0.246;2023-05-07T04:35:45;18;18;
64631;PMS5003;58358;50.936;0.246;2023-05-07T04:38:11;22;20;
64631;PMS5003;58358;50.936;0.246;2023-05-07T04:40:37;19;19;
64631;PMS5003;58358;50.936;0.246;2023-05-07T04:43:02;16;16;
64631;PMS5003;58358;50.936;0.246;2023-05-07T04:45:27;21;19;
64631;PMS5003;58358;50.936;0.246;2023-05-07T04:47:52;21;18;
64631;PMS5003;58358;50.936;0.246;2023-05-07T04:50:18;21;20;
64631;PMS5003;58358;50.936;0.246;2023-05-07T04:52:43;20;18;
64631;PMS5003;58358;50.936;0.246;2023-05-07T04:55:09;21;21;
64631;PMS5003;58358;50.936;0.246;2023-05-07T04:57:34;17;16;
64631;PMS5003;58358;50.936;0.246;2023-05-07T04:59:59;21;20;
64631;PMS5003;58358;50.936;0.246;2023-05-07T05:02:25;20;19;
64631;PMS5003;58358;50.936;0.246;2023-05-07T05:04:50;15;14;
64631;PMS5003;58358;50.936;0.246;2023-05-07T05:07:15;20;17;
64631;PMS5003;58358;50.936;0.246;2023-05-07T05:09:41;18;17;
64631;PMS5003;58358;50.936;0.246;2023-05-07T05:12:06;17;17;
64631;PMS5003;58358;50.936;0.246;2023-05-07T05:14:32;12;11;
64631;PMS5003;58358;50.936;0.246;2023-05-07T05:16:58;19;15;
64631;PMS5003;58358;50.936;0.246;2023-05-07T05:19:23;16;16;
64631;PMS5003;58358;50.936;0.246;2023-05-07T05:21:48;13;12;
64631;PMS5003;58358;50.936;0.246;2023-05-07T05:24:14;13;12;
64631;PMS5003;58358;50.936;0.246;2023-05-07T05:26:40;15;14;
64631;PMS5003;58358;50.936;0.246;2023-05-07T05:29:05;11;10;
64631;PMS5003;58358;50.936;0.246;2023-05-07T05:31:30;14;14;
64631;PMS5003;58358;50.936;0.246;2023-05-07T05:33:56;10;10;
64631;PMS5003;58358;50.936;0.246;2023-05-07T05:36:21;8;8;
64631;PMS5003;58358;50.936;0.246;2023-05-07T05:38:47;12;12;
64631;PMS5003;58358;50.936;0.246;2023-05-07T05:41:12;8;8;
64631;PMS5003;58358;50.936;0.246;2023-05-07T05:43:38;8;8;
64631;PMS5003;58358;50.936;0.246;2023-05-07T05:46:03;12;12;
64631;PMS5003;58358;50.936;0.246;2023-05-07T05:48:29;11;10;
64631;PMS5003;58358;50.936;0.246;2023-05-07T05:50:54;13;8;
64631;PMS5003;58358;50.936;0.246;2023-05-07T05:53:20;12;12;
64631;PMS5003;58358;50.936;0.246;2023-05-07T05:55:45;10;10;
64631;PMS5003;58358;50.936;0.246;2023-05-07T05:58:10;8;8;
64631;PMS5003;58358;50.936;0.246;2023-05-07T06:00:35;13;10;
64631;PMS5003;58358;50.936;0.246;2023-05-07T06:03:00;14;12;
64631;PMS5003;58358;50.936;0.246;2023-05-07T06:05:26;16;14;
64631;PMS5003;58358;50.936;0.246;2023-05-07T06:07:51;11;10;
64631;PMS5003;58358;50.936;0.246;2023-05-07T06:10:16;14;13;
64631;PMS5003;58358;50.936;0.246;2023-05-07T06:12:41;9;9;
64631;PMS5003;58358;50.936;0.246;2023-05-07T06:15:07;17;14;
64631;PMS5003;58358;50.936;0.246;2023-05-07T06:17:33;10;10;
64631;PMS5003;58358;50.936;0.246;2023-05-07T06:19:58;14;12;
64631;PMS5003;58358;50.936;0.246;2023-05-07T06:22:24;14;14;
64631;PMS5003;58358;50.936;0.246;2023-05-07T06:24:49;13;12;
64631;PMS5003;58358;50.936;0.246;2023-05-07T06:27:15;18;15;
64631;PMS5003;58358;50.936;0.246;2023-05-07T06:29:41;19;17;
64631;PMS5003;58358;50.936;0.246;2023-05-07T06:32:06;15;13;
64631;PMS5003;58358;50.936;0.246;2023-05-07T06:34:31;16;13;
64631;PMS5003;58358;50.936;0.246;2023-05-07T06:36:57;15;15;
64631;PMS5003;58358;50.936;0.246;2023-05-07T06:39:22;14;13;
64631;PMS5003;58358;50.936;0.246;2023-05-07T06:41:48;18;17;
64631;PMS5003;58358;50.936;0.246;2023-05-07T06:44:13;20;19;
64631;PMS5003;58358;50.936;0.246;2023-05-07T06:46:40;18;15;
64631;PMS5003;58358;50.936;0.246;2023-05-07T06:49:04;19;18;
64631;PMS5003;58358;50.936;0.246;2023-05-07T06:51:29;20;20;
64631;PMS5003;58358;50.936;0.246;2023-05-07T06:53:54;21;19;
64631;PMS5003;58358;50.936;0.246;2023-05-07T06:56:19;16;16;
64631;PMS5003;58358;50.936;0.246;2023-05-07T06:58:45;16;15;
64631;PMS5003;58358;50.936;0.246;2023-05-07T07:01:10;17;17;
64631;PMS5003;58358;50.936;0.246;2023-05-07T07:03:35;19;19;
64631;PMS5003;58358;50.936;0.246;2023-05-07T07:06:01;17;17;
64631;PMS5003;58358;50.936;0.246;2023-05-07T07:08:26;19;17;
64631;PMS5003;58358;50.936;0.246;2023-05-07T07:10:52;14;11;
64631;PMS5003;58358;50.936;0.246;2023-05-07T07:13:17;16;14;
64631;PMS5003;58358;50.936;0.246;2023-05-07T07:15:43;17;17;
64631;PMS5003;58358;50.936;0.246;2023-05-07T07:18:08;19;16;
64631;PMS5003;58358;50.936;0.246;2023-05-07T07:20:34;17;14;
64631;PMS5003;58358;50.936;0.246;2023-05-07T07:22:59;13;13;
64631;PMS5003;58358;50.936;0.246;2023-05-07T07:25:25;10;10;
64631;PMS5003;58358;50.936;0.246;2023-05-07T07:27:51;13;10;
64631;PMS5003;58358;50.936;0.246;2023-05-07T07:30:16;9;9;
64631;PMS5003;58358;50.936;0.246;2023-05-07T07:32:42;14;14;
64631;PMS5003;58358;50.936;0.246;2023-05-07T07:35:07;14;13;
64631;PMS5003;58358;50.936;0.246;2023-05-07T07:37:32;11;11;
64631;PMS5003;58358;50.936;0.246;2023-05-07T07:39:58;11;11;
64631;PMS5003;58358;50.936;0.246;2023-05-07T07:42:24;12;11;
64631;PMS5003;58358;50.936;0.246;2023-05-07T07:44:49;14;12;
64631;PMS5003;58358;50.936;0.246;2023-05-07T07:47:15;12;11;
64631;PMS5003;58358;50.936;0.246;2023-05-07T07:49:40;10;10;
64631;PMS5003;58358;50.936;0.246;2023-05-07T07:52:05;10;10;
64631;PMS5003;58358;50.936;0.246;2023-05-07T07:54:30;24;21;
64631;PMS5003;58358;50.936;0.246;2023-05-07T07:56:56;24;21;
64631;PMS5003;58358;50.936;0.246;2023-05-07T07:59:22;12;12;
64631;PMS5003;58358;50.936;0.246;2023-05-07T08:01:48;13;13;
64631;PMS5003;58358;50.936;0.246;2023-05-07T08:04:12;12;12;
64631;PMS5003;58358;50.936;0.246;2023-05-07T08:06:38;14;12;
64631;PMS5003;58358;50.936;0.246;2023-05-07T08:09:03;16;15;
64631;PMS5003;58358;50.936;0.246;2023-05-07T08:11:29;13;11;
64631;PMS5003;58358;50.936;0.246;2023-05-07T08:13:54;12;12;
64631;PMS5003;58358;50.936;0.246;2023-05-07T08:16:20;13;12;
64631;PMS5003;58358;50.936;0.246;2023-05-07T08:18:45;16;16;
64631;PMS5003;58358;50.936;0.246;2023-05-07T08:21:10;8;8;
64631;PMS5003;58358;50.936;0.246;2023-05-07T08:23:36;13;11;
64631;PMS5003;58358;50.936;0.246;2023-05-07T08:26:02;11;11;
64631;PMS5003;58358;50.936;0.246;2023-05-07T08:28:27;13;12;
64631;PMS5003;58358;50.936;0.246;2023-05-07T08:30:52;12;12;
64631;PMS5003;58358;50.936;0.246;2023-05-07T08:33:18;14;14;
64631;PMS5003;58358;50.936;0.246;2023-05-07T08:35:43;13;12;
64631;PMS5003;58358;50.936;0.246;2023-05-07T08:38:09;15;15;
64631;PMS5003;58358;50.936;0.246;2023-05-07T08:40:35;15;14;
64631;PMS5003;58358;50.936;0.246;2023-05-07T08:43:00;16;15;
64631;PMS5003;58358;50.936;0.246;2023-05-07T08:45:25;16;14;
64631;PMS5003;58358;50.936;0.246;2023-05-07T08:47:51;13;13;
64631;PMS5003;58358;50.936;0.246;2023-05-07T08:50:16;14;12;
64631;PMS5003;58358;50.936;0.246;2023-05-07T08:52:41;16;15;
64631;PMS5003;58358;50.936;0.246;2023-05-07T08:55:08;15;13;
64631;PMS5003;58358;50.936;0.246;2023-05-07T08:57:33;13;13;
64631;PMS5003;58358;50.936;0.246;2023-05-07T08:59:58;14;14;
64631;PMS5003;58358;50.936;0.246;2023-05-07T09:02:24;14;13;
64631;PMS5003;58358;50.936;0.246;2023-05-07T09:04:49;16;15;
64631;PMS5003;58358;50.936;0.246;2023-05-07T09:07:15;13;13;
64631;PMS5003;58358;50.936;0.246;2023-05-07T09:09:40;16;13;
64631;PMS5003;58358;50.936;0.246;2023-05-07T09:12:06;17;16;
64631;PMS5003;58358;50.936;0.246;2023-05-07T09:14:31;11;11;
64631;PMS5003;58358;50.936;0.246;2023-05-07T09:16:57;18;15;
64631;PMS5003;58358;50.936;0.246;2023-05-07T09:19:22;12;11;
64631;PMS5003;58358;50.936;0.246;2023-05-07T09:21:47;18;18;
64631;PMS5003;58358;50.936;0.246;2023-05-07T09:24:15;14;14;
64631;PMS5003;58358;50.936;0.246;2023-05-07T09:26:38;19;18;
64631;PMS5003;58358;50.936;0.246;2023-05-07T09:29:03;19;18;
64631;PMS5003;58358;50.936;0.246;2023-05-07T09:31:28;22;18;
64631;PMS5003;58358;50.936;0.246;2023-05-07T09:33:53;20;17;
64631;PMS5003;58358;50.936;0.246;2023-05-07T09:36:19;16;15;
64631;PMS5003;58358;50.936;0.246;2023-05-07T09:38:45;22;18;
64631;PMS5003;58358;50.936;0.246;2023-05-07T09:41:10;17;15;
64631;PMS5003;58358;50.936;0.246;2023-05-07T09:43:36;18;18;
64631;PMS5003;58358;50.936;0.246;2023-05-07T09:46:02;16;16;
64631;PMS5003;58358;50.936;0.246;2023-05-07T09:48:26;18;17;
64631;PMS5003;58358;50.936;0.246;2023-05-07T09:50:52;11;11;
64631;PMS5003;58358;50.936;0.246;2023-05-07T09:53:18;20;19;
64631;PMS5003;58358;50.936;0.246;2023-05-07T09:55:43;17;15;
64631;PMS5003;58358;50.936;0.246;2023-05-07T09:58:09;15;15;
64631;PMS5003;58358;50.936;0.246;2023-05-07T10:00:34;16;14;
64631;PMS5003;58358;50.936;0.246;2023-05-07T10:02:59;17;16;
64631;PMS5003;58358;50.936;0.246;2023-05-07T10:05:25;16;16;
64631;PMS5003;58358;50.936;0.246;2023-05-07T10:07:50;20;18;
64631;PMS5003;58358;50.936;0.246;2023-05-07T10:10:16;14;14;
64631;PMS5003;58358;50.936;0.246;2023-05-07T10:12:41;14;14;
64631;PMS5003;58358;50.936;0.246;2023-05-07T10:15:07;14;13;
64631;PMS5003;58358;50.936;0.246;2023-05-07T10:17:31;14;14;
64631;PMS5003;58358;50.936;0.246;2023-05-07T10:19:57;16;14;
64631;PMS5003;58358;50.936;0.246;2023-05-07T10:22:22;19;17;
64631;PMS5003;58358;50.936;0.246;2023-05-07T10:24:48;21;20;
64631;PMS5003;58358;50.936;0.246;2023-05-07T10:27:13;20;20;
64631;PMS5003;58358;50.936;0.246;2023-05-07T10:29:42;15;15;
64631;PMS5003;58358;50.936;0.246;2023-05-07T10:32:09;17;16;
64631;PMS5003;58358;50.936;0.246;2023-05-07T10:34:37;16;15;
64631;PMS5003;58358;50.936;0.246;2023-05-07T10:36:55;17;15;
64631;PMS5003;58358;50.936;0.246;2023-05-07T10:39:20;22;18;
64631;PMS5003;58358;50.936;0.246;2023-05-07T10:41:45;18;17;
64631;PMS5003;58358;50.936;0.246;2023-05-07T10:44:11;21;18;
64631;PMS5003;58358;50.936;0.246;2023-05-07T10:46:36;17;17;
64631;PMS5003;58358;50.936;0.246;2023-05-07T10:49:07;18;18;
64631;PMS5003;58358;50.936;0.246;2023-05-07T10:51:27;20;20;
64631;PMS5003;58358;50.936;0.246;2023-05-07T10:56:24;20;20;
64631;PMS5003;58358;50.936;0.246;2023-05-07T10:58:42;19;18;
64631;PMS5003;58358;50.936;0.246;2023-05-07T11:01:08;18;17;
64631;PMS5003;58358;50.936;0.246;2023-05-07T11:03:33;15;15;
64631;PMS5003;58358;50.936;0.246;2023-05-07T11:08:24;19;17;
64631;PMS5003;58358;50.936;0.246;2023-05-07T11:10:50;16;16;
64631;PMS5003;58358;50.936;0.246;2023-05-07T11:13:14;19;16;
64631;PMS5003;58358;50.936;0.246;2023-05-07T11:15:40;17;17;
64631;PMS5003;58358;50.936;0.246;2023-05-07T11:18:04;17;15;
64631;PMS5003;58358;50.936;0.246;2023-05-07T11:22:55;21;21;
64631;PMS5003;58358;50.936;0.246;2023-05-07T11:25:20;20;20;
64631;PMS5003;58358;50.936;0.246;2023-05-07T11:27:46;24;21;
64631;PMS5003;58358;50.936;0.246;2023-05-07T11:30:11;22;22;
64631;PMS5003;58358;50.936;0.246;2023-05-07T11:32:35;27;25;
64631;PMS5003;58358;50.936;0.246;2023-05-07T11:35:01;23;22;
64631;PMS5003;58358;50.936;0.246;2023-05-07T11:37:27;26;25;
64631;PMS5003;58358;50.936;0.246;2023-05-07T11:42:27;24;23;
64631;PMS5003;58358;50.936;0.246;2023-05-07T11:44:43;21;21;
64631;PMS5003;58358;50.936;0.246;2023-05-07T11:47:09;19;19;
64631;PMS5003;58358;50.936;0.246;2023-05-07T11:49:34;20;20;
64631;PMS5003;58358;50.936;0.246;2023-05-07T11:51:59;19;19;
64631;PMS5003;58358;50.936;0.246;2023-05-07T11:54:24;21;20;
64631;PMS5003;58358;50.936;0.246;2023-05-07T11:56:50;21;21;
64631;PMS5003;58358;50.936;0.246;2023-05-07T11:59:18;19;19;
64631;PMS5003;58358;50.936;0.246;2023-05-07T12:01:42;21;19;
64631;PMS5003;58358;50.936;0.246;2023-05-07T12:04:07;21;21;
64631;PMS5003;58358;50.936;0.246;2023-05-07T12:06:36;16;16;
64631;PMS5003;58358;50.936;0.246;2023-05-07T12:08:58;19;18;
64631;PMS5003;58358;50.936;0.246;2023-05-07T12:11:25;19;19;
64631;PMS5003;58358;50.936;0.246;2023-05-07T12:13:49;16;16;
64631;PMS5003;58358;50.936;0.246;2023-05-07T12:16:14;23;23;
64631;PMS5003;58358;50.936;0.246;2023-05-07T12:18:39;19;19;
64631;PMS5003;58358;50.936;0.246;2023-05-07T12:21:05;20;20;
64631;PMS5003;58358;50.936;0.246;2023-05-07T12:23:30;23;23;
64631;PMS5003;58358;50.936;0.246;2023-05-07T12:25:56;19;19;
64631;PMS5003;58358;50.936;0.246;2023-05-07T12:28:21;25;23;
64631;PMS5003;58358;50.936;0.246;2023-05-07T12:30:46;18;18;
64631;PMS5003;58358;50.936;0.246;2023-05-07T12:33:12;19;16;
64631;PMS5003;58358;50.936;0.246;2023-05-07T12:35:38;16;15;
64631;PMS5003;58358;50.936;0.246;2023-05-07T12:38:03;17;16;
64631;PMS5003;58358;50.936;0.246;2023-05-07T12:42:53;19;19;
64631;PMS5003;58358;50.936;0.246;2023-05-07T12:45:19;15;15;
64631;PMS5003;58358;50.936;0.246;2023-05-07T12:47:44;19;17;
64631;PMS5003;58358;50.936;0.246;2023-05-07T12:50:09;16;16;
64631;PMS5003;58358;50.936;0.246;2023-05-07T12:52:35;18;18;
64631;PMS5003;58358;50.936;0.246;2023-05-07T12:57:26;19;18;
64631;PMS5003;58358;50.936;0.246;2023-05-07T12:59:52;18;18;
64631;PMS5003;58358;50.936;0.246;2023-05-07T13:02:17;23;22;
64631;PMS5003;58358;50.936;0.246;2023-05-07T13:04:43;18;18;
64631;PMS5003;58358;50.936;0.246;2023-05-07T13:07:08;19;17;
64631;PMS5003;58358;50.936;0.246;2023-05-07T13:09:34;18;18;
64631;PMS5003;58358;50.936;0.246;2023-05-07T13:12:00;20;20;
64631;PMS5003;58358;50.936;0.246;2023-05-07T13:14:25;18;18;
64631;PMS5003;58358;50.936;0.246;2023-05-07T13:16:50;18;17;
64631;PMS5003;58358;50.936;0.246;2023-05-07T13:19:16;19;18;
64631;PMS5003;58358;50.936;0.246;2023-05-07T13:21:41;19;19;
64631;PMS5003;58358;50.936;0.246;2023-05-07T13:24:07;18;18;
64631;PMS5003;58358;50.936;0.246;2023-05-07T13:26:32;18;15;
64631;PMS5003;58358;50.936;0.246;2023-05-07T13:28:58;15;15;
64631;PMS5003;58358;50.936;0.246;2023-05-07T13:31:24;22;19;
64631;PMS5003;58358;50.936;0.246;2023-05-07T13:33:49;17;16;
64631;PMS5003;58358;50.936;0.246;2023-05-07T13:36:14;16;16;
64631;PMS5003;58358;50.936;0.246;2023-05-07T13:38:41;18;18;
64631;PMS5003;58358;50.936;0.246;2023-05-07T13:41:06;14;14;
64631;PMS5003;58358;50.936;0.246;2023-05-07T13:43:31;14;14;
64631;PMS5003;58358;50.936;0.246;2023-05-07T13:45:56;16;15;
64631;PMS5003;58358;50.936;0.246;2023-05-07T13:48:22;16;16;
64631;PMS5003;58358;50.936;0.246;2023-05-07T13:50:47;15;13;
64631;PMS5003;58358;50.936;0.246;2023-05-07T13:53:13;10;10;
64631;PMS5003;58358;50.936;0.246;2023-05-07T13:55:38;14;14;
64631;PMS5003;58358;50.936;0.246;2023-05-07T13:58:04;11;11;
64631;PMS5003;58358;50.936;0.246;2023-05-07T14:00:29;13;13;
64631;PMS5003;58358;50.936;0.246;2023-05-07T14:02:55;19;18;
64631;PMS5003;58358;50.936;0.246;2023-05-07T14:05:20;17;16;
64631;PMS5003;58358;50.936;0.246;2023-05-07T14:07:45;13;13;
64631;PMS5003;58358;50.936;0.246;2023-05-07T14:10:10;15;14;
64631;PMS5003;58358;50.936;0.246;2023-05-07T14:12:36;14;14;
64631;PMS5003;58358;50.936;0.246;2023-05-07T14:15:01;15;15;
64631;PMS5003;58358;50.936;0.246;2023-05-07T14:17:27;15;13;
64631;PMS5003;58358;50.936;0.246;2023-05-07T14:19:53;12;12;
64631;PMS5003;58358;50.936;0.246;2023-05-07T14:22:18;13;13;
64631;PMS5003;58358;50.936;0.246;2023-05-07T14:24:44;11;11;
64631;PMS5003;58358;50.936;0.246;2023-05-07T14:27:09;16;16;
64631;PMS5003;58358;50.936;0.246;2023-05-07T14:29:34;14;14;
64631;PMS5003;58358;50.936;0.246;2023-05-07T14:32:00;12;11;
64631;PMS5003;58358;50.936;0.246;2023-05-07T14:34:26;12;12;
64631;PMS5003;58358;50.936;0.246;2023-05-07T14:36:51;13;12;
64631;PMS5003;58358;50.936;0.246;2023-05-07T14:39:17;13;13;
64631;PMS5003;58358;50.936;0.246;2023-05-07T14:41:42;10;8;
64631;PMS5003;58358;50.936;0.246;2023-05-07T14:44:07;11;11;
64631;PMS5003;58358;50.936;0.246;2023-05-07T14:46:37;12;12;
64631;PMS5003;58358;50.936;0.246;2023-05-07T14:48:58;11;11;
64631;PMS5003;58358;50.936;0.246;2023-05-07T14:51:23;10;10;
64631;PMS5003;58358;50.936;0.246;2023-05-07T14:53:49;15;14;
64631;PMS5003;58358;50.936;0.246;2023-05-07T14:56:14;13;13;
64631;PMS5003;58358;50.936;0.246;2023-05-07T14:58:39;14;14;
64631;PMS5003;58358;50.936;0.246;2023-05-07T15:01:05;14;14;
64631;PMS5003;58358;50.936;0.246;2023-05-07T15:03:31;14;14;
64631;PMS5003;58358;50.936;0.246;2023-05-07T15:05:56;16;16;
64631;PMS5003;58358;50.936;0.246;2023-05-07T15:08:22;16;15;
64631;PMS5003;58358;50.936;0.246;2023-05-07T15:10:47;17;15;
64631;PMS5003;58358;50.936;0.246;2023-05-07T15:13:13;17;17;
64631;PMS5003;58358;50.936;0.246;2023-05-07T15:15:39;17;15;
64631;PMS5003;58358;50.936;0.246;2023-05-07T15:18:04;14;14;
64631;PMS5003;58358;50.936;0.246;2023-05-07T15:20:30;13;13;
64631;PMS5003;58358;50.936;0.246;2023-05-07T15:22:55;12;12;
64631;PMS5003;58358;50.936;0.246;2023-05-07T15:25:20;15;15;
64631;PMS5003;58358;50.936;0.246;2023-05-07T15:27:46;14;11;
64631;PMS5003;58358;50.936;0.246;2023-05-07T15:30:12;11;11;
64631;PMS5003;58358;50.936;0.246;2023-05-07T15:32:37;13;13;
64631;PMS5003;58358;50.936;0.246;2023-05-07T15:35:03;12;12;
64631;PMS5003;58358;50.936;0.246;2023-05-07T15:37:27;15;15;
64631;PMS5003;58358;50.936;0.246;2023-05-07T15:39:53;14;13;
64631;PMS5003;58358;50.936;0.246;2023-05-07T15:42:19;13;13;
64631;PMS5003;58358;50.936;0.246;2023-05-07T15:44:44;14;14;
64631;PMS5003;58358;50.936;0.246;2023-05-07T15:47:09;11;11;
64631;PMS5003;58358;50.936;0.246;2023-05-07T15:49:35;10;9;
64631;PMS5003;58358;50.936;0.246;2023-05-07T15:52:00;12;10;
64631;PMS5003;58358;50.936;0.246;2023-05-07T15:54:26;9;8;
64631;PMS5003;58358;50.936;0.246;2023-05-07T15:56:51;9;9;
64631;PMS5003;58358;50.936;0.246;2023-05-07T15:59:17;10;10;
64631;PMS5003;58358;50.936;0.246;2023-05-07T16:01:42;9;8;
64631;PMS5003;58358;50.936;0.246;2023-05-07T16:04:07;9;8;
64631;PMS5003;58358;50.936;0.246;2023-05-07T16:06:33;9;9;
64631;PMS5003;58358;50.936;0.246;2023-05-07T16:08:58;8;8;
64631;PMS5003;58358;50.936;0.246;2023-05-07T16:11:24;7;7;
64631;PMS5003;58358;50.936;0.246;2023-05-07T16:13:49;10;10;
64631;PMS5003;58358;50.936;0.246;2023-05-07T16:16:15;9;9;
64631;PMS5003;58358;50.936;0.246;2023-05-07T16:18:40;9;9;
64631;PMS5003;58358;50.936;0.246;2023-05-07T16:21:06;10;10;